createdAt,value
2018-06-24T00:00:24.263Z,6.27
2018-06-24T00:02:52.838Z,6.60
2018-06-24T00:05:21.105Z,6.60
2018-06-24T00:07:49.492Z,5.93
2018-06-24T00:10:17.732Z,7.57
2018-06-24T00:12:45.971Z,5.93
2018-06-24T00:15:14.201Z,8.80
2018-06-24T00:17:42.478Z,6.40
2018-06-24T00:20:10.805Z,5.43
2018-06-24T00:22:39.009Z,8.87
2018-06-24T00:25:07.268Z,5.50
2018-06-24T00:27:35.545Z,6.73
2018-06-24T00:30:03.854Z,6.43
2018-06-24T00:32:32.019Z,5.07
2018-06-24T00:35:00.271Z,5.40
2018-06-24T00:37:28.519Z,4.90
2018-06-24T00:39:56.728Z,4.57
2018-06-24T00:42:24.961Z,4.50
2018-06-24T00:44:53.158Z,4.57
2018-06-24T00:47:21.353Z,5.97
2018-06-24T00:49:49.491Z,5.47
2018-06-24T00:52:17.817Z,5.47
2018-06-24T00:54:46.763Z,7.60
2018-06-24T00:57:15.316Z,7.17
2018-06-24T00:59:54.967Z,4.33
2018-06-24T01:02:23.127Z,6.10
2018-06-24T01:04:52.944Z,4.80
2018-06-24T01:07:21.185Z,5.10
2018-06-24T01:09:49.384Z,5.60
2018-06-24T01:12:17.588Z,5.43
2018-06-24T01:14:45.805Z,4.40
2018-06-24T01:17:14.087Z,4.80
2018-06-24T01:19:42.309Z,4.87
2018-06-24T01:22:10.584Z,5.40
2018-06-24T01:24:38.822Z,4.73
2018-06-24T01:27:07.116Z,5.57
2018-06-24T01:29:35.316Z,5.20
2018-06-24T01:32:03.564Z,4.93
2018-06-24T01:34:31.775Z,4.30
2018-06-24T01:37:00.048Z,5.03
2018-06-24T01:39:29.876Z,4.97
2018-06-24T01:41:58.067Z,5.40
2018-06-24T01:44:26.336Z,4.70
2018-06-24T01:46:54.941Z,5.07
2018-06-24T01:49:23.213Z,4.73
2018-06-24T01:51:51.519Z,5.20
2018-06-24T01:54:19.707Z,5.00
2018-06-24T01:56:48.059Z,5.30
2018-06-24T01:59:18.000Z,4.63
2018-06-24T02:01:46.825Z,4.77
2018-06-24T02:04:15.108Z,5.20
2018-06-24T02:06:43.319Z,4.63
2018-06-24T02:09:13.105Z,5.17
2018-06-24T02:11:41.673Z,5.40
2018-06-24T02:14:10.140Z,4.43
2018-06-24T02:16:38.787Z,5.50
2018-06-24T02:19:08.047Z,5.00
2018-06-24T02:21:36.223Z,5.07
2018-06-24T02:24:06.163Z,4.90
2018-06-24T02:26:35.245Z,6.50
2018-06-24T02:29:03.481Z,4.70
2018-06-24T02:31:31.644Z,4.90
2018-06-24T02:33:59.846Z,4.90
2018-06-24T02:36:28.133Z,4.63
2018-06-24T02:38:56.316Z,5.30
2018-06-24T02:41:24.550Z,5.93
2018-06-24T02:43:52.801Z,4.73
2018-06-24T02:46:21.033Z,5.30
2018-06-24T02:48:49.351Z,6.93
2018-06-24T02:51:17.596Z,5.40
2018-06-24T02:53:45.923Z,5.47
2018-06-24T02:56:14.073Z,5.80
2018-06-24T02:58:42.364Z,5.20
2018-06-24T03:01:10.684Z,6.00
2018-06-24T03:03:38.941Z,6.03
2018-06-24T03:06:07.297Z,7.07
2018-06-24T03:08:35.546Z,5.13
2018-06-24T03:11:03.712Z,5.13
2018-06-24T03:13:31.917Z,6.00
2018-06-24T03:16:00.072Z,6.23
2018-06-24T03:18:28.272Z,6.13
2018-06-24T03:20:56.817Z,6.50
2018-06-24T03:23:25.015Z,5.87
2018-06-24T03:25:53.270Z,7.23
2018-06-24T03:28:21.518Z,7.37
2018-06-24T03:30:49.691Z,8.10
2018-06-24T03:33:17.928Z,7.67
2018-06-24T03:35:46.125Z,7.50
2018-06-24T03:38:14.337Z,7.20
2018-06-24T03:40:42.633Z,7.40
2018-06-24T03:43:10.887Z,6.70
2018-06-24T03:45:39.043Z,7.00
2018-06-24T03:48:07.284Z,7.17
2018-06-24T03:50:35.569Z,7.07
2018-06-24T03:53:03.913Z,6.97
2018-06-24T03:55:32.182Z,6.57
2018-06-24T03:58:00.484Z,6.87
2018-06-24T04:00:35.233Z,5.97
2018-06-24T04:03:03.500Z,7.07
2018-06-24T04:05:32.534Z,7.60
2018-06-24T04:08:00.829Z,7.40
2018-06-24T04:10:29.087Z,7.17
2018-06-24T04:12:57.371Z,8.37
2018-06-24T04:15:25.643Z,7.43
2018-06-24T04:17:53.953Z,7.10
2018-06-24T04:20:22.250Z,7.37
2018-06-24T04:22:50.406Z,8.70
2018-06-24T04:25:18.688Z,6.77
2018-06-24T04:27:46.957Z,7.23
2018-06-24T04:30:15.157Z,7.40
2018-06-24T04:32:43.349Z,7.97
2018-06-24T04:35:11.880Z,8.00
2018-06-24T04:37:40.099Z,8.23
2018-06-24T04:40:08.432Z,8.10
2018-06-24T04:42:36.692Z,8.47
2018-06-24T04:45:05.425Z,9.40
2018-06-24T04:47:33.792Z,9.50
2018-06-24T04:50:02.029Z,8.17
2018-06-24T04:52:30.228Z,9.10
2018-06-24T04:54:58.488Z,8.87
2018-06-24T04:57:33.421Z,9.60
2018-06-24T05:00:01.657Z,9.70
2018-06-24T05:02:29.885Z,9.17
2018-06-24T05:04:58.487Z,9.93
2018-06-24T05:07:26.682Z,10.13
2018-06-24T05:09:54.918Z,10.40
2018-06-24T05:12:23.135Z,9.40
2018-06-24T05:14:51.385Z,9.80
2018-06-24T05:17:19.623Z,9.73
2018-06-24T05:19:47.909Z,10.70
2018-06-24T05:22:17.104Z,10.77
2018-06-24T05:24:45.306Z,10.83
2018-06-24T05:27:13.507Z,11.17
2018-06-24T05:29:41.758Z,10.30
2018-06-24T05:32:09.991Z,11.10
2018-06-24T05:34:38.181Z,10.63
2018-06-24T05:37:06.443Z,12.53
2018-06-24T05:39:34.700Z,10.33
2018-06-24T05:42:02.905Z,10.40
2018-06-24T05:44:31.186Z,10.47
2018-06-24T05:46:59.605Z,9.67
2018-06-24T05:49:27.832Z,10.00
2018-06-24T05:51:56.446Z,9.90
2018-06-24T05:54:24.959Z,9.17
2018-06-24T05:56:53.210Z,10.97
2018-06-24T05:59:21.536Z,9.63
2018-06-24T06:01:49.710Z,9.00
2018-06-24T06:04:18.000Z,8.83
2018-06-24T06:06:46.354Z,8.40
2018-06-24T06:09:14.572Z,8.77
2018-06-24T06:11:42.896Z,8.87
2018-06-24T06:14:11.170Z,9.77
2018-06-24T06:16:39.466Z,8.37
2018-06-24T06:19:07.714Z,9.30
2018-06-24T06:21:36.072Z,7.90
2018-06-24T06:24:04.362Z,7.53
2018-06-24T06:26:32.638Z,7.50
2018-06-24T06:29:01.135Z,7.30
2018-06-24T06:31:29.366Z,7.73
2018-06-24T06:33:57.615Z,7.40
2018-06-24T06:36:25.799Z,8.90
2018-06-24T06:38:54.004Z,8.63
2018-06-24T06:41:23.236Z,8.20
2018-06-24T06:43:51.530Z,7.60
2018-06-24T06:46:20.029Z,7.77
2018-06-24T06:48:48.604Z,8.43
2018-06-24T06:51:16.854Z,8.33
2018-06-24T06:53:45.094Z,8.33
2018-06-24T06:56:13.578Z,6.97
2018-06-24T06:58:41.800Z,6.90
2018-06-24T07:01:11.020Z,7.30
2018-06-24T07:03:46.139Z,6.80
2018-06-24T07:06:14.386Z,6.90
2018-06-24T07:08:42.600Z,6.30
2018-06-24T07:11:10.895Z,6.63
2018-06-24T07:13:39.570Z,7.63
2018-06-24T07:16:07.826Z,6.50
2018-06-24T07:18:36.023Z,6.60
2018-06-24T07:21:04.327Z,6.00
2018-06-24T07:23:32.561Z,5.80
2018-06-24T07:26:00.856Z,5.93
2018-06-24T07:28:29.064Z,6.00
2018-06-24T07:31:03.804Z,6.33
2018-06-24T07:33:32.162Z,6.63
2018-06-24T07:36:00.256Z,5.93
2018-06-24T07:38:28.712Z,7.13
2018-06-24T07:40:56.984Z,7.63
2018-06-24T07:43:25.240Z,6.73
2018-06-24T07:45:53.444Z,5.20
2018-06-24T07:48:21.749Z,7.10
2018-06-24T07:50:50.007Z,6.83
2018-06-24T07:53:18.514Z,5.23
2018-06-24T07:55:46.788Z,5.87
2018-06-24T07:58:15.153Z,5.83
2018-06-24T08:00:43.393Z,6.20
2018-06-24T08:03:11.944Z,5.40
2018-06-24T08:05:40.151Z,5.43
2018-06-24T08:08:08.353Z,5.43
2018-06-24T08:10:36.551Z,6.63
2018-06-24T08:13:04.820Z,6.27
2018-06-24T08:15:33.017Z,6.43
2018-06-24T08:18:01.224Z,5.20
2018-06-24T08:20:30.111Z,5.77
2018-06-24T08:22:58.341Z,5.67
2018-06-24T08:25:26.650Z,6.00
2018-06-24T08:27:54.939Z,6.53
2018-06-24T08:30:23.700Z,6.70
2018-06-24T08:32:52.143Z,6.83
2018-06-24T08:35:20.385Z,6.60
2018-06-24T08:37:48.593Z,5.77
2018-06-24T08:40:16.846Z,6.87
2018-06-24T08:42:45.124Z,6.13
2018-06-24T08:45:13.376Z,5.47
2018-06-24T08:47:41.584Z,6.03
2018-06-24T08:50:09.801Z,5.60
2018-06-24T08:52:38.089Z,5.67
2018-06-24T08:55:06.481Z,5.93
2018-06-24T08:57:34.647Z,6.70
2018-06-24T09:00:02.906Z,5.93
2018-06-24T09:02:31.517Z,5.63
2018-06-24T09:04:59.717Z,5.43
2018-06-24T09:07:27.924Z,5.60
2018-06-24T09:09:56.199Z,6.00
2018-06-24T09:12:24.396Z,6.50
2018-06-24T09:14:52.652Z,5.50
2018-06-24T09:17:20.833Z,6.50
2018-06-24T09:19:49.208Z,6.20
2018-06-24T09:22:17.453Z,5.90
2018-06-24T09:24:45.693Z,5.27
2018-06-24T09:27:14.283Z,5.27
2018-06-24T09:29:42.608Z,5.10
2018-06-24T09:32:10.853Z,5.37
2018-06-24T09:34:39.139Z,4.90
2018-06-24T09:37:07.330Z,5.57
2018-06-24T09:39:35.667Z,3.90
2018-06-24T09:42:03.895Z,4.30
2018-06-24T09:44:32.145Z,4.57
2018-06-24T09:47:00.403Z,3.47
2018-06-24T09:49:28.627Z,4.33
2018-06-24T09:51:56.770Z,4.70
2018-06-24T09:54:25.013Z,4.33
2018-06-24T09:56:53.286Z,4.90
2018-06-24T09:59:21.557Z,6.03
2018-06-24T10:01:49.796Z,6.33
2018-06-24T10:04:17.947Z,4.37
2018-06-24T10:06:46.245Z,4.90
2018-06-24T10:09:14.524Z,4.77
2018-06-24T10:11:42.780Z,4.40
2018-06-24T10:14:11.016Z,4.43
2018-06-24T10:16:39.261Z,4.83
2018-06-24T10:19:08.106Z,3.90
2018-06-24T10:21:36.380Z,4.60
2018-06-24T10:24:04.611Z,4.63
2018-06-24T10:26:32.826Z,4.50
2018-06-24T10:29:01.045Z,4.53
2018-06-24T10:31:29.440Z,4.80
2018-06-24T10:33:57.665Z,4.00
2018-06-24T10:36:25.882Z,4.10
2018-06-24T10:38:54.213Z,3.67
2018-06-24T10:41:22.440Z,4.13
2018-06-24T10:43:50.649Z,3.73
2018-06-24T10:46:18.971Z,5.30
2018-06-24T10:48:47.247Z,5.17
2018-06-24T10:51:15.944Z,4.80
2018-06-24T10:53:44.110Z,4.00
2018-06-24T10:56:12.758Z,3.60
2018-06-24T10:58:40.960Z,5.07
2018-06-24T11:01:09.229Z,4.13
2018-06-24T11:03:37.557Z,3.30
2018-06-24T11:06:06.096Z,3.20
2018-06-24T11:08:34.369Z,3.30
2018-06-24T11:11:02.695Z,2.90
2018-06-24T11:13:30.916Z,3.20
2018-06-24T11:15:59.205Z,3.23
2018-06-24T11:18:27.698Z,2.97
2018-06-24T11:20:55.955Z,3.47
2018-06-24T11:23:24.124Z,3.40
2018-06-24T11:25:52.274Z,3.87
2018-06-24T11:28:20.493Z,2.90
2018-06-24T11:30:48.742Z,3.77
2018-06-24T11:33:17.078Z,2.63
2018-06-24T11:35:45.288Z,3.30
2018-06-24T11:38:13.496Z,2.30
2018-06-24T11:40:41.966Z,2.30
2018-06-24T11:43:10.233Z,2.67
2018-06-24T11:45:38.465Z,2.33
2018-06-24T11:48:06.816Z,2.73
2018-06-24T11:50:35.030Z,2.80
2018-06-24T11:53:03.227Z,2.63
2018-06-24T11:55:31.386Z,2.60
2018-06-24T11:57:59.640Z,2.83
2018-06-24T12:00:27.901Z,2.67
2018-06-24T12:02:56.113Z,2.10
2018-06-24T12:05:24.389Z,2.67
2018-06-24T12:07:52.658Z,2.70
2018-06-24T12:10:20.889Z,2.57
2018-06-24T12:12:49.199Z,2.40
2018-06-24T12:15:17.408Z,2.87
2018-06-24T12:17:45.629Z,2.73
2018-06-24T12:20:14.044Z,3.60
2018-06-24T12:22:42.278Z,3.90
2018-06-24T12:25:10.475Z,4.47
2018-06-24T12:27:38.628Z,4.17
2018-06-24T12:30:06.799Z,4.83
2018-06-24T12:32:35.038Z,4.30
2018-06-24T12:35:03.334Z,4.17
2018-06-24T12:37:31.600Z,3.60
2018-06-24T12:39:59.823Z,4.80
2018-06-24T12:42:28.050Z,4.97
2018-06-24T12:44:56.287Z,5.00
2018-06-24T12:47:24.530Z,4.10
2018-06-24T12:49:52.770Z,4.93
2018-06-24T12:52:21.027Z,4.63
2018-06-24T12:54:49.206Z,3.93
2018-06-24T12:57:17.438Z,3.63
2018-06-24T12:59:45.931Z,3.40
2018-06-24T13:02:14.200Z,4.30
2018-06-24T13:04:42.517Z,3.90
2018-06-24T13:07:10.726Z,3.57
2018-06-24T13:09:38.943Z,3.57
2018-06-24T13:12:07.177Z,3.80
2018-06-24T13:14:35.424Z,2.60
2018-06-24T13:17:03.673Z,3.13
2018-06-24T13:19:31.920Z,3.40
2018-06-24T13:22:00.229Z,2.87
2018-06-24T13:24:28.387Z,2.60
2018-06-24T13:26:56.670Z,3.07
2018-06-24T13:29:24.878Z,3.00
2018-06-24T13:31:53.517Z,2.90
2018-06-24T13:34:21.724Z,2.50
2018-06-24T13:36:49.977Z,3.10
2018-06-24T13:39:18.243Z,2.80
2018-06-24T13:41:46.493Z,2.87
2018-06-24T13:44:14.706Z,2.93
2018-06-24T13:46:42.891Z,3.07
2018-06-24T13:49:11.081Z,3.70
2018-06-24T13:51:39.364Z,3.43
2018-06-24T13:54:07.559Z,3.60
2018-06-24T13:56:35.778Z,3.83
2018-06-24T13:59:04.053Z,3.17
2018-06-24T14:01:32.370Z,3.53
2018-06-24T14:04:00.671Z,3.40
2018-06-24T14:06:28.935Z,3.30
2018-06-24T14:08:57.157Z,3.57
2018-06-24T14:11:25.436Z,3.43
2018-06-24T14:13:53.654Z,2.57
2018-06-24T14:16:22.042Z,3.30
2018-06-24T14:18:50.295Z,4.20
2018-06-24T14:21:18.527Z,3.77
2018-06-24T14:23:46.763Z,3.63
2018-06-24T14:26:15.221Z,3.00
2018-06-24T14:28:43.538Z,3.23
2018-06-24T14:31:11.835Z,4.13
2018-06-24T14:33:40.078Z,4.50
2018-06-24T14:36:08.388Z,3.70
2018-06-24T14:38:36.591Z,4.83
2018-06-24T14:41:04.863Z,3.90
2018-06-24T14:43:33.173Z,3.97
2018-06-24T14:46:01.425Z,4.37
2018-06-24T14:48:29.674Z,4.13
2018-06-24T14:50:57.912Z,4.00
2018-06-24T14:53:26.127Z,4.20
2018-06-24T14:55:54.421Z,3.50
2018-06-24T14:58:22.698Z,3.90
2018-06-24T15:00:50.915Z,3.97
2018-06-24T15:03:19.139Z,3.40
2018-06-24T15:05:47.684Z,3.73
2018-06-24T15:08:15.933Z,5.30
2018-06-24T15:10:44.170Z,3.80
2018-06-24T15:13:12.373Z,3.63
2018-06-24T15:15:40.592Z,3.43
2018-06-24T15:18:08.837Z,3.47
2018-06-24T15:20:37.091Z,3.30
2018-06-24T15:23:05.698Z,4.03
2018-06-24T15:25:33.965Z,3.90
2018-06-24T15:28:02.232Z,3.90
2018-06-24T15:30:30.487Z,3.73
2018-06-24T15:32:58.693Z,4.87
2018-06-24T15:35:27.227Z,3.80
2018-06-24T15:37:55.574Z,3.50
2018-06-24T15:40:23.823Z,4.30
2018-06-24T15:42:52.003Z,3.30
2018-06-24T15:45:20.264Z,4.10
2018-06-24T15:47:48.470Z,3.70
2018-06-24T15:50:16.789Z,4.10
2018-06-24T15:52:44.986Z,3.60
2018-06-24T15:55:13.277Z,4.13
2018-06-24T15:57:41.528Z,3.20
2018-06-24T16:00:09.676Z,4.30
2018-06-24T16:02:37.948Z,3.33
2018-06-24T16:05:06.169Z,4.20
2018-06-24T16:07:34.392Z,4.30
2018-06-24T16:10:02.693Z,4.27
2018-06-24T16:12:30.998Z,4.07
2018-06-24T16:14:59.351Z,4.17
2018-06-24T16:17:27.507Z,4.20
2018-06-24T16:19:55.684Z,5.17
2018-06-24T16:22:23.934Z,4.47
2018-06-24T16:24:52.103Z,4.40
2018-06-24T16:27:20.336Z,3.90
2018-06-24T16:29:48.620Z,3.90
2018-06-24T16:32:16.875Z,4.47
2018-06-24T16:34:45.054Z,5.27
2018-06-24T16:37:13.252Z,4.70
2018-06-24T16:39:41.529Z,4.97
2018-06-24T16:42:09.732Z,4.83
2018-06-24T16:44:37.928Z,5.40
2018-06-24T16:47:06.159Z,5.50
2018-06-24T16:49:34.444Z,4.93
2018-06-24T16:52:02.646Z,5.37
2018-06-24T16:54:30.814Z,5.00
2018-06-24T16:56:59.112Z,4.90
2018-06-24T16:59:27.383Z,5.90
2018-06-24T17:01:55.573Z,5.93
2018-06-24T17:04:23.788Z,5.00
2018-06-24T17:06:52.005Z,5.70
2018-06-24T17:09:20.560Z,5.50
2018-06-24T17:11:48.789Z,5.10
2018-06-24T17:14:16.985Z,6.07
2018-06-24T17:16:45.215Z,5.83
2018-06-24T17:19:13.446Z,6.00
2018-06-24T17:21:41.721Z,5.10
2018-06-24T17:24:10.004Z,6.17
2018-06-24T17:26:38.320Z,5.60
2018-06-24T17:29:06.556Z,5.23
2018-06-24T17:31:37.748Z,5.33
2018-06-24T17:34:05.943Z,5.50
2018-06-24T17:36:34.201Z,6.90
2018-06-24T17:39:02.468Z,5.77
2018-06-24T17:41:30.757Z,6.37
2018-06-24T17:43:59.036Z,7.10
2018-06-24T17:46:27.183Z,6.87
2018-06-24T17:48:55.507Z,8.90
2018-06-24T17:51:23.696Z,5.47
2018-06-24T17:53:51.912Z,6.07
2018-06-24T17:56:20.110Z,6.37
2018-06-24T17:58:48.370Z,6.43
2018-06-24T18:01:16.591Z,5.90
2018-06-24T18:03:45.045Z,5.70
2018-06-24T18:06:13.522Z,6.00
2018-06-24T18:08:41.809Z,6.47
2018-06-24T18:11:10.104Z,6.07
2018-06-24T18:13:38.332Z,5.77
2018-06-24T18:16:06.504Z,6.20
2018-06-24T18:18:34.955Z,5.27
2018-06-24T18:21:03.278Z,6.90
2018-06-24T18:23:31.464Z,5.73
2018-06-24T18:25:59.706Z,4.93
2018-06-24T18:28:28.204Z,5.90
2018-06-24T18:30:56.360Z,5.63
2018-06-24T18:33:24.618Z,5.53
2018-06-24T18:35:52.805Z,5.70
2018-06-24T18:38:21.113Z,5.10
2018-06-24T18:40:49.385Z,9.50
2018-06-24T18:43:17.654Z,5.70
2018-06-24T18:45:45.856Z,5.07
2018-06-24T18:48:14.367Z,5.63
2018-06-24T18:50:42.600Z,5.20
2018-06-24T18:53:10.820Z,5.30
2018-06-24T18:55:39.031Z,6.00
2018-06-24T18:58:07.249Z,8.67
2018-06-24T19:00:35.420Z,5.70
2018-06-24T19:03:03.836Z,4.87
2018-06-24T19:05:31.860Z,5.37
2018-06-24T19:08:00.081Z,4.60
2018-06-24T19:10:28.323Z,5.40
2018-06-24T19:12:56.536Z,5.50
2018-06-24T19:15:24.749Z,5.33
2018-06-24T19:17:53.033Z,5.30
2018-06-24T19:20:21.225Z,4.33
2018-06-24T19:22:49.412Z,9.03
2018-06-24T19:25:17.734Z,6.20
2018-06-24T19:27:45.941Z,4.70
2018-06-24T19:30:14.196Z,6.93
2018-06-24T19:32:42.466Z,8.50
2018-06-24T19:35:10.676Z,6.73
2018-06-24T19:37:38.921Z,5.93
2018-06-24T19:40:09.375Z,6.60
2018-06-24T19:42:39.407Z,6.47
2018-06-24T19:45:10.118Z,5.13
2018-06-24T19:47:41.208Z,5.40
2018-06-24T19:50:09.754Z,5.70
2018-06-24T19:52:38.111Z,7.00
2018-06-24T19:55:06.358Z,5.70
2018-06-24T19:57:34.653Z,6.13
2018-06-24T20:00:02.909Z,5.10
2018-06-24T20:02:31.090Z,5.20
2018-06-24T20:04:59.364Z,7.27
2018-06-24T20:07:27.646Z,6.37
2018-06-24T20:09:56.146Z,5.40
2018-06-24T20:12:24.732Z,6.37
2018-06-24T20:14:53.019Z,10.13
2018-06-24T20:17:21.225Z,8.03
2018-06-24T20:19:49.536Z,7.10
2018-06-24T20:22:17.743Z,6.40
2018-06-24T20:24:45.960Z,5.93
2018-06-24T20:27:14.273Z,5.67
2018-06-24T20:29:42.449Z,6.57
2018-06-24T20:32:10.682Z,6.27
2018-06-24T20:34:39.148Z,5.50
2018-06-24T20:37:07.431Z,10.00
2018-06-24T20:39:35.836Z,9.17
2018-06-24T20:42:04.095Z,7.17
2018-06-24T20:44:32.319Z,9.40
2018-06-24T20:47:00.589Z,9.40
2018-06-24T20:49:28.897Z,8.00
2018-06-24T20:51:57.221Z,6.63
2018-06-24T20:54:25.936Z,7.13
2018-06-24T20:56:54.538Z,7.40
2018-06-24T20:59:22.826Z,8.60
2018-06-24T21:01:51.078Z,7.30
2018-06-24T21:04:19.281Z,7.53
2018-06-24T21:06:47.644Z,7.07
2018-06-24T21:09:15.945Z,7.60
2018-06-24T21:11:44.606Z,7.30
2018-06-24T21:14:12.857Z,6.83
2018-06-24T21:16:41.575Z,8.43
2018-06-24T21:19:09.825Z,8.53
2018-06-24T21:21:37.994Z,7.20
2018-06-24T21:24:06.302Z,7.57
2018-06-24T21:26:34.516Z,9.03
2018-06-24T21:29:02.788Z,7.90
2018-06-24T21:31:31.199Z,7.77
2018-06-24T21:33:59.433Z,9.70
2018-06-24T21:36:27.706Z,10.97
2018-06-24T21:38:55.986Z,9.10
2018-06-24T21:41:24.207Z,8.13
2018-06-24T21:46:26.832Z,8.27
2018-06-24T21:48:55.047Z,9.30
2018-06-24T21:51:23.302Z,10.47
2018-06-24T21:53:51.524Z,8.53
2018-06-24T21:56:19.858Z,9.60
2018-06-24T21:58:48.102Z,8.40
2018-06-24T22:01:16.370Z,8.80
2018-06-24T22:03:44.836Z,8.43
2018-06-24T22:06:13.363Z,9.43
2018-06-24T22:08:41.592Z,10.67
2018-06-24T22:11:09.828Z,9.83
2018-06-24T22:13:38.058Z,8.77
2018-06-24T22:16:06.266Z,11.77
2018-06-24T22:18:34.542Z,11.00
2018-06-24T22:21:02.852Z,11.30
2018-06-24T22:23:31.210Z,9.40
2018-06-24T22:25:59.400Z,9.80
2018-06-24T22:28:27.658Z,11.00
2018-06-24T22:30:55.906Z,9.00
2018-06-24T22:33:24.183Z,8.73
2018-06-24T22:35:52.392Z,8.30
2018-06-24T22:38:20.676Z,9.33
2018-06-24T22:40:49.278Z,9.47
2018-06-24T22:43:17.528Z,8.33
2018-06-24T22:45:45.932Z,8.07
2018-06-24T22:48:14.177Z,8.30
2018-06-24T22:50:42.413Z,9.17
2018-06-24T22:53:10.601Z,9.60
2018-06-24T22:55:38.869Z,10.70
2018-06-24T22:58:07.139Z,15.23
2018-06-24T23:00:35.373Z,10.07
2018-06-24T23:03:04.784Z,9.33
2018-06-24T23:05:32.978Z,9.47
2018-06-24T23:08:01.203Z,17.37
2018-06-24T23:10:29.392Z,13.53
2018-06-24T23:12:57.743Z,8.97
2018-06-24T23:15:25.997Z,9.33
2018-06-24T23:17:54.302Z,9.37
2018-06-24T23:20:22.540Z,9.97
2018-06-24T23:22:50.749Z,7.80
2018-06-24T23:25:18.931Z,8.90
2018-06-24T23:27:47.188Z,10.07
2018-06-24T23:30:15.435Z,9.80
2018-06-24T23:32:43.624Z,9.47
2018-06-24T23:35:12.133Z,9.70
2018-06-24T23:37:40.403Z,10.70
2018-06-24T23:40:08.584Z,10.90
2018-06-24T23:42:36.829Z,10.77
2018-06-24T23:45:05.046Z,10.37
2018-06-24T23:47:33.269Z,10.77
2018-06-24T23:50:01.448Z,10.80
2018-06-24T23:52:29.686Z,10.23
2018-06-24T23:54:58.218Z,10.97
2018-06-24T23:57:26.438Z,8.47
2018-06-24T23:59:54.666Z,9.70
